Time;durP1;ratioP1;P1;durP2;ratioP2;P2;SDS_P1;SDS_P2;PMS_P1;PMS_P2;Temp;Humidity;BMP_temperature;BMP_pressure;BME280_temperature;BME280_humidity;BME280_pressure;Samples;Min_cycle;Max_cycle;Signal;HPM_P1;HPM_P2
2020/12/17 00:00:24;;;;;;;15.57;7.97;;;2.60;80.00;;;;;;5098603;28;20111;-41
2020/12/17 00:02:49;;;;;;;17.27;10.23;;;2.60;80.10;;;;;;5098830;28;20515;-41
2020/12/17 00:05:16;;;;;;;21.33;9.93;;;2.60;80.00;;;;;;5098421;28;20040;-42
2020/12/17 00:07:42;;;;;;;17.10;9.27;;;2.60;79.90;;;;;;5097853;28;20310;-41
2020/12/17 00:10:09;;;;;;;17.50;9.15;;;2.60;80.10;;;;;;5097714;28;20050;-42
2020/12/17 00:12:40;;;;;;;17.83;9.02;;;2.70;80.10;;;;;;5097378;28;20043;-41
2020/12/17 00:15:08;;;;;;;20.17;9.02;;;2.70;80.00;;;;;;5097051;28;20103;-41
2020/12/17 00:17:46;;;;;;;18.27;9.20;;;2.70;80.10;;;;;;5097440;28;20367;-41
2020/12/17 00:20:13;;;;;;;18.05;9.35;;;2.70;80.00;;;;;;5097867;28;20376;-41
2020/12/17 00:22:39;;;;;;;22.98;10.48;;;2.70;79.80;;;;;;5097817;28;20052;-41
2020/12/17 00:25:07;;;;;;;16.27;8.45;;;2.70;79.90;;;;;;5098390;28;20119;-41
2020/12/17 00:27:33;;;;;;;18.00;9.90;;;2.70;79.90;;;;;;5098006;28;20396;-40
2020/12/17 00:29:59;;;;;;;20.27;9.85;;;2.70;79.90;;;;;;5096847;28;20073;-42
2020/12/17 00:32:24;;;;;;;17.38;9.60;;;2.70;79.90;;;;;;5098202;28;20035;-40
2020/12/17 00:34:50;;;;;;;19.13;9.55;;;2.70;80.00;;;;;;5098813;28;20051;-41
2020/12/17 00:37:16;;;;;;;18.40;9.30;;;2.70;79.90;;;;;;5098184;28;20119;-41
2020/12/17 00:39:42;;;;;;;17.45;9.45;;;2.70;79.60;;;;;;5096703;28;20032;-41
2020/12/17 00:42:08;;;;;;;17.25;9.15;;;2.70;79.60;;;;;;5097154;28;20104;-41
2020/12/17 00:44:34;;;;;;;18.20;9.32;;;2.70;79.70;;;;;;5095530;28;21361;-41
2020/12/17 00:47:00;;;;;;;15.90;8.10;;;2.70;79.70;;;;;;5093474;28;20106;-41
2020/12/17 00:49:26;;;;;;;13.38;7.47;;;2.70;79.60;;;;;;5097163;28;20043;-42
2020/12/17 00:51:58;;;;;;;13.25;7.43;;;2.70;80.10;;;;;;5096683;28;20028;-42
2020/12/17 00:54:24;;;;;;;13.15;7.20;;;2.70;79.60;;;;;;5093675;28;20106;-42
2020/12/17 00:56:50;;;;;;;12.73;7.45;;;2.70;79.40;;;;;;5095418;28;20442;-41
2020/12/17 00:59:15;;;;;;;12.43;7.05;;;2.70;79.30;;;;;;5096249;28;20437;-42
2020/12/17 01:01:41;;;;;;;14.57;8.00;;;2.60;79.40;;;;;;5095768;28;20023;-43
2020/12/17 01:04:07;;;;;;;16.05;9.23;;;2.70;79.70;;;;;;5094980;28;20119;-43
2020/12/17 01:06:33;;;;;;;16.30;8.77;;;2.70;79.80;;;;;;5096665;28;20028;-43
2020/12/17 01:08:58;;;;;;;15.50;8.65;;;2.70;79.80;;;;;;5096468;28;20024;-40
2020/12/17 01:11:28;;;;;;;16.13;8.70;;;2.70;79.70;;;;;;5096341;28;20031;-42
2020/12/17 01:13:54;;;;;;;15.57;8.30;;;2.70;79.80;;;;;;5096935;28;20396;-41
2020/12/17 01:16:20;;;;;;;13.63;7.90;;;2.70;79.70;;;;;;5097484;28;20020;-41
2020/12/17 01:18:45;;;;;;;13.93;8.02;;;2.70;79.50;;;;;;5097707;28;20047;-41
2020/12/17 01:21:11;;;;;;;15.77;7.80;;;2.70;79.50;;;;;;5097405;28;20034;-41
2020/12/17 01:23:37;;;;;;;12.25;7.22;;;2.70;79.50;;;;;;5096022;28;20056;-41
2020/12/17 01:26:08;;;;;;;14.48;8.20;;;2.80;80.10;;;;;;5095641;28;20032;-42
2020/12/17 01:28:34;;;;;;;16.42;8.98;;;2.80;79.40;;;;;;5094991;28;20036;-41
2020/12/17 01:31:04;;;;;;;16.08;8.50;;;2.80;79.50;;;;;;5096261;28;20027;-41
2020/12/17 01:33:29;;;;;;;21.25;11.07;;;2.80;79.70;;;;;;5096619;28;20032;-41
2020/12/17 01:35:55;;;;;;;18.55;10.95;;;2.80;79.80;;;;;;5096605;28;20028;-42
2020/12/17 01:38:20;;;;;;;16.45;9.27;;;2.90;79.80;;;;;;5098048;28;20032;-41
2020/12/17 01:40:46;;;;;;;15.05;8.40;;;2.90;79.80;;;;;;5097319;28;20097;-42
2020/12/17 01:43:12;;;;;;;16.90;8.80;;;3.00;79.70;;;;;;5095397;28;20047;-41
2020/12/17 01:45:37;;;;;;;12.43;7.10;;;3.00;79.50;;;;;;5095046;28;20023;-43
2020/12/17 01:48:04;;;;;;;13.30;7.88;;;3.00;79.40;;;;;;5094415;28;20540;-41
2020/12/17 01:50:30;;;;;;;13.73;7.68;;;3.00;79.20;;;;;;5094750;28;20024;-41
2020/12/17 01:52:57;;;;;;;14.20;7.20;;;3.00;79.10;;;;;;5094223;28;20038;-41
2020/12/17 01:55:26;;;;;;;10.48;6.53;;;3.00;79.10;;;;;;5094090;28;20020;-41
2020/12/17 01:57:55;;;;;;;12.30;6.95;;;3.10;79.30;;;;;;5095222;28;20027;-41
2020/12/17 02:00:22;;;;;;;13.70;7.75;;;3.10;79.20;;;;;;5095306;28;20020;-41
2020/12/17 02:02:48;;;;;;;14.43;6.47;;;3.10;79.20;;;;;;5096008;28;20038;-41
2020/12/17 02:05:14;;;;;;;11.93;7.00;;;3.10;79.00;;;;;;5096793;28;20028;-41
2020/12/17 02:07:43;;;;;;;11.75;6.43;;;3.10;78.60;;;;;;5096456;28;20032;-41
2020/12/17 02:10:09;;;;;;;11.30;6.95;;;3.10;78.40;;;;;;5096416;28;20518;-41
2020/12/17 02:12:48;;;;;;;12.80;6.65;;;3.10;78.40;;;;;;5096636;28;20036;-41
2020/12/17 02:15:17;;;;;;;12.45;7.50;;;3.10;78.40;;;;;;5096669;28;20020;-41
2020/12/17 02:17:43;;;;;;;13.90;7.28;;;3.10;78.30;;;;;;5096828;28;20032;-42
2020/12/17 02:20:10;;;;;;;16.20;8.35;;;3.10;78.30;;;;;;5096069;28;20027;-41
2020/12/17 02:22:36;;;;;;;15.05;7.68;;;3.00;78.30;;;;;;5096368;28;20429;-41
2020/12/17 02:25:05;;;;;;;11.43;7.00;;;3.00;78.30;;;;;;5096311;28;20043;-41
2020/12/17 02:27:31;;;;;;;14.50;7.57;;;3.00;78.50;;;;;;5096687;28;20024;-41
2020/12/17 02:29:57;;;;;;;13.80;8.50;;;3.00;78.60;;;;;;5096272;28;20150;-42
2020/12/17 02:32:23;;;;;;;14.52;8.75;;;3.00;78.60;;;;;;5096563;28;20035;-41
2020/12/17 02:34:49;;;;;;;15.50;7.65;;;3.00;78.70;;;;;;5096769;28;20024;-41
2020/12/17 02:37:15;;;;;;;17.77;8.80;;;3.00;78.70;;;;;;5096782;28;20081;-41
2020/12/17 02:39:41;;;;;;;13.60;7.50;;;3.00;78.80;;;;;;5097845;28;20071;-41
2020/12/17 02:42:06;;;;;;;14.98;8.18;;;2.90;78.70;;;;;;5100120;28;20055;-41
2020/12/17 02:44:32;;;;;;;15.75;8.73;;;2.90;78.60;;;;;;5100550;28;20082;-42
2020/12/17 02:46:58;;;;;;;15.88;8.15;;;2.90;78.50;;;;;;5100255;28;20020;-41
2020/12/17 02:49:23;;;;;;;14.32;7.47;;;2.90;78.60;;;;;;5100528;28;20032;-44
2020/12/17 02:51:49;;;;;;;15.52;8.63;;;2.90;78.70;;;;;;5100892;28;20052;-40
2020/12/17 02:54:15;;;;;;;15.05;7.43;;;2.90;78.80;;;;;;5101040;28;20132;-42
2020/12/17 02:56:41;;;;;;;13.05;8.00;;;2.90;78.70;;;;;;5083845;28;20026;-42
2020/12/17 02:59:06;;;;;;;16.23;7.97;;;2.80;78.60;;;;;;5099042;28;20085;-42
2020/12/17 03:01:32;;;;;;;16.90;8.63;;;2.80;78.60;;;;;;5099725;28;20028;-42
2020/12/17 03:03:58;;;;;;;14.02;7.78;;;2.80;78.60;;;;;;5100626;28;20046;-41
2020/12/17 03:06:23;;;;;;;14.40;7.95;;;2.70;78.60;;;;;;5099929;28;20436;-42
2020/12/17 03:08:49;;;;;;;15.38;7.65;;;2.70;78.70;;;;;;5100258;28;20433;-41
2020/12/17 03:11:15;;;;;;;16.05;8.60;;;2.70;79.40;;;;;;5098235;28;20024;-41
2020/12/17 03:13:41;;;;;;;15.82;8.48;;;2.70;79.00;;;;;;5098427;28;20024;-41
2020/12/17 03:16:06;;;;;;;17.20;9.00;;;2.60;79.10;;;;;;5099523;28;20318;-42
2020/12/17 03:18:32;;;;;;;18.98;8.93;;;2.60;79.30;;;;;;5098841;28;20077;-41
2020/12/17 03:20:58;;;;;;;16.08;8.70;;;2.60;79.30;;;;;;5097082;28;20107;-42
2020/12/17 03:23:24;;;;;;;19.38;8.88;;;2.60;79.10;;;;;;5098180;28;20476;-41
2020/12/17 03:25:50;;;;;;;14.43;8.52;;;2.50;79.10;;;;;;5098942;28;20101;-42
2020/12/17 03:28:15;;;;;;;15.63;8.90;;;2.50;79.20;;;;;;5093211;28;20061;-41
2020/12/17 03:30:41;;;;;;;16.13;8.30;;;2.50;79.30;;;;;;5097379;28;20031;-42
2020/12/17 03:33:07;;;;;;;16.92;8.95;;;2.40;79.40;;;;;;5097199;28;20028;-41
2020/12/17 03:35:33;;;;;;;15.63;8.05;;;2.40;79.40;;;;;;5097304;28;20032;-42
2020/12/17 03:37:58;;;;;;;22.48;9.07;;;2.40;79.60;;;;;;5096287;28;20036;-41
2020/12/17 03:40:25;;;;;;;14.02;8.43;;;2.40;79.70;;;;;;5097052;28;20035;-42
2020/12/17 03:42:51;;;;;;;20.40;9.93;;;2.40;79.80;;;;;;5096539;28;20039;-41
2020/12/17 03:45:17;;;;;;;15.70;8.27;;;2.40;79.60;;;;;;5096719;28;20110;-42
2020/12/17 03:47:43;;;;;;;14.23;7.95;;;2.30;79.60;;;;;;5096819;28;20112;-42
2020/12/17 03:50:09;;;;;;;14.32;7.60;;;2.30;79.80;;;;;;5096804;28;20024;-42
2020/12/17 03:52:34;;;;;;;18.85;7.90;;;2.30;79.90;;;;;;5087395;28;20527;-41
2020/12/17 03:55:00;;;;;;;13.15;7.53;;;2.30;80.10;;;;;;5088634;28;20069;-42
2020/12/17 03:57:26;;;;;;;16.40;7.95;;;2.30;80.20;;;;;;5097679;28;20036;-41
2020/12/17 03:59:51;;;;;;;13.10;7.25;;;2.30;80.30;;;;;;5098113;28;20016;-42
2020/12/17 04:02:17;;;;;;;14.07;7.50;;;2.20;80.30;;;;;;5098533;28;20028;-41
2020/12/17 04:04:43;;;;;;;13.90;7.45;;;2.20;80.30;;;;;;5096291;28;20027;-42
2020/12/17 04:07:12;;;;;;;13.75;7.88;;;2.20;80.30;;;;;;5097365;28;20032;-41
2020/12/17 04:09:41;;;;;;;15.57;8.05;;;2.20;80.40;;;;;;5098633;28;20031;-41
2020/12/17 04:12:08;;;;;;;13.02;7.80;;;2.30;80.60;;;;;;5097574;28;20125;-41
2020/12/17 04:14:34;;;;;;;16.67;9.40;;;2.20;80.50;;;;;;5097771;28;20119;-42
2020/12/17 04:17:00;;;;;;;15.40;8.60;;;2.20;80.40;;;;;;5097948;28;20024;-41
2020/12/17 04:19:25;;;;;;;15.38;8.95;;;2.20;80.50;;;;;;5097393;28;20024;-42
2020/12/17 04:21:51;;;;;;;15.20;8.88;;;2.20;80.50;;;;;;5094616;28;20012;-42
2020/12/17 04:24:17;;;;;;;15.50;8.20;;;2.20;80.60;;;;;;5097358;28;20512;-41
2020/12/17 04:26:49;;;;;;;15.13;9.55;;;2.20;80.60;;;;;;5097163;28;20012;-42
2020/12/17 04:29:14;;;;;;;17.23;9.32;;;2.20;80.70;;;;;;5097589;28;20032;-41
2020/12/17 04:31:40;;;;;;;21.25;10.85;;;2.20;80.70;;;;;;5097184;28;20024;-42
2020/12/17 04:34:06;;;;;;;17.83;9.98;;;2.10;80.70;;;;;;5094046;28;20040;-42
2020/12/17 04:36:32;;;;;;;17.30;9.80;;;2.10;80.80;;;;;;5097126;28;20024;-44
2020/12/17 04:38:58;;;;;;;17.83;9.38;;;2.20;80.90;;;;;;5098372;28;20404;-41
2020/12/17 04:41:25;;;;;;;17.42;10.07;;;2.10;80.90;;;;;;5079728;28;20068;-42
2020/12/17 04:43:51;;;;;;;22.35;11.02;;;2.10;81.10;;;;;;5098719;28;20051;-41
2020/12/17 04:46:19;;;;;;;15.90;9.55;;;2.20;81.20;;;;;;5098608;28;20341;-41
2020/12/17 04:48:50;;;;;;;15.18;9.05;;;2.20;81.40;;;;;;5097078;28;20032;-42
2020/12/17 04:51:17;;;;;;;18.27;9.77;;;2.20;81.40;;;;;;5097055;28;20307;-42
2020/12/17 04:53:48;;;;;;;20.27;10.52;;;2.20;81.20;;;;;;5096871;28;20110;-43
2020/12/17 04:56:15;;;;;;;19.60;9.50;;;2.20;81.20;;;;;;5096970;28;20314;-41
2020/12/17 04:58:45;;;;;;;17.83;10.57;;;2.20;81.10;;;;;;5097041;28;20031;-41
2020/12/17 05:01:14;;;;;;;45.35;16.30;;;2.20;81.30;;;;;;5094688;28;20074;-41
2020/12/17 05:03:45;;;;;;;19.05;10.90;;;2.20;81.30;;;;;;5095235;28;20042;-41
2020/12/17 05:06:17;;;;;;;18.40;9.93;;;2.30;81.50;;;;;;5097262;28;20114;-41
2020/12/17 05:08:43;;;;;;;16.08;10.10;;;2.30;81.50;;;;;;5098323;28;20085;-42
2020/12/17 05:11:09;;;;;;;21.10;11.30;;;2.30;81.30;;;;;;5097991;28;20020;-42
2020/12/17 05:13:34;;;;;;;20.67;10.60;;;2.40;81.40;;;;;;5097841;28;20032;-41
2020/12/17 05:16:00;;;;;;;17.90;10.68;;;2.30;81.40;;;;;;5097782;28;20024;-42
2020/12/17 05:18:26;;;;;;;23.48;11.55;;;2.40;81.40;;;;;;5098027;28;20059;-41
2020/12/17 05:20:51;;;;;;;23.15;12.52;;;2.40;81.50;;;;;;5097362;28;20028;-42
2020/12/17 05:23:18;;;;;;;25.13;11.70;;;2.40;81.30;;;;;;5097294;28;20441;-42
2020/12/17 05:25:44;;;;;;;16.08;10.00;;;2.40;81.40;;;;;;5097237;28;20039;-42
2020/12/17 05:28:13;;;;;;;22.08;12.50;;;2.40;81.40;;;;;;5097661;28;20321;-42
2020/12/17 05:30:39;;;;;;;22.52;11.57;;;2.40;81.50;;;;;;5096188;28;20020;-42
2020/12/17 05:33:05;;;;;;;20.42;10.68;;;2.50;81.50;;;;;;5095372;28;20405;-41
2020/12/17 05:35:32;;;;;;;24.73;13.27;;;2.50;81.30;;;;;;5096331;28;20048;-42
2020/12/17 05:38:00;;;;;;;19.33;10.90;;;2.50;81.40;;;;;;5095997;28;20050;-42
2020/12/17 05:40:26;;;;;;;19.92;11.07;;;2.50;81.50;;;;;;5095918;28;20038;-42
2020/12/17 05:42:52;;;;;;;22.40;12.23;;;2.50;81.30;;;;;;5094906;28;20353;-41
2020/12/17 05:45:26;;;;;;;29.92;15.15;;;2.60;81.40;;;;;;5094647;28;20020;-41
2020/12/17 05:48:15;;;;;;;34.17;15.75;;;2.60;81.40;;;;;;5095190;28;20030;-41
2020/12/17 05:50:55;;;;;;;27.38;13.65;;;2.60;81.40;;;;;;5094640;28;20012;-42
2020/12/17 05:53:25;;;;;;;20.57;11.60;;;2.60;81.40;;;;;;5094490;28;20366;-41
2020/12/17 05:56:00;;;;;;;25.63;13.63;;;2.60;81.40;;;;;;5094479;28;20263;-41
2020/12/17 05:58:42;;;;;;;24.35;13.52;;;2.60;81.30;;;;;;5096912;28;20421;-41
2020/12/17 06:01:12;;;;;;;27.90;13.43;;;2.70;81.30;;;;;;5095410;28;20035;-42
2020/12/17 06:03:42;;;;;;;28.50;15.63;;;2.70;81.30;;;;;;5095930;28;20047;-41
2020/12/17 06:06:08;;;;;;;26.42;12.82;;;2.70;81.50;;;;;;5095847;28;20048;-41
2020/12/17 06:08:49;;;;;;;25.20;14.02;;;2.70;81.50;;;;;;5096777;28;20089;-41
2020/12/17 06:11:15;;;;;;;21.27;11.88;;;2.70;81.50;;;;;;5096343;28;20035;-41
2020/12/17 06:13:43;;;;;;;29.40;15.30;;;2.70;81.60;;;;;;5096445;28;20039;-41
2020/12/17 06:16:10;;;;;;;117.82;67.18;;;2.80;81.50;;;;;;5096477;28;20384;-41
2020/12/17 06:18:44;;;;;;;45.67;24.35;;;2.80;81.30;;;;;;5096720;28;20032;-41
2020/12/17 06:21:11;;;;;;;32.47;17.27;;;2.80;81.30;;;;;;5096301;28;20028;-41
2020/12/17 06:23:38;;;;;;;32.15;15.98;;;2.80;81.20;;;;;;5096002;28;20059;-41
2020/12/17 06:26:11;;;;;;;25.27;14.02;;;2.80;81.10;;;;;;5096016;28;20048;-41
2020/12/17 06:28:38;;;;;;;34.22;16.98;;;2.90;81.20;;;;;;5096833;28;20039;-41
2020/12/17 06:31:05;;;;;;;25.92;14.52;;;2.90;81.20;;;;;;5096407;28;20103;-42
2020/12/17 06:33:35;;;;;;;44.25;19.25;;;2.90;81.30;;;;;;5096734;28;20032;-41
2020/12/17 06:36:03;;;;;;;29.30;13.75;;;2.90;81.40;;;;;;5096396;28;20020;-41
2020/12/17 06:38:30;;;;;;;36.38;17.90;;;2.90;81.40;;;;;;5096681;28;20042;-41
2020/12/17 06:40:55;;;;;;;35.95;19.05;;;2.90;81.40;;;;;;5095835;28;20028;-42
2020/12/17 06:43:33;;;;;;;34.63;15.90;;;2.90;81.40;;;;;;5095807;28;20043;-41
2020/12/17 06:46:00;;;;;;;28.85;14.07;;;2.90;81.20;;;;;;5095944;28;20127;-42
2020/12/17 06:48:40;;;;;;;35.30;16.40;;;2.90;81.00;;;;;;5096037;28;20028;-42
2020/12/17 06:51:31;;;;;;;23.73;12.27;;;2.90;81.00;;;;;;5094801;28;20035;-42
2020/12/17 06:53:58;;;;;;;24.42;12.20;;;2.90;81.00;;;;;;5093267;28;20445;-40
2020/12/17 06:56:23;;;;;;;21.67;11.75;;;2.90;80.90;;;;;;5093052;28;20081;-41
2020/12/17 06:59:09;;;;;;;26.52;12.10;;;2.90;80.70;;;;;;5091592;28;20024;-40
2020/12/17 07:01:37;;;;;;;17.95;10.50;;;2.90;80.70;;;;;;5072183;28;20032;-40
2020/12/17 07:04:03;;;;;;;26.60;12.05;;;2.80;80.60;;;;;;5072235;28;20127;-42
2020/12/17 07:06:28;;;;;;;22.00;11.88;;;2.80;80.70;;;;;;5072783;28;20411;-42
2020/12/17 07:08:58;;;;;;;22.55;10.82;;;2.80;80.80;;;;;;5073294;28;20372;-40
2020/12/17 07:11:42;;;;;;;22.98;12.02;;;2.80;80.90;;;;;;5074812;28;20433;-41
2020/12/17 07:14:26;;;;;;;28.98;14.07;;;2.80;81.00;;;;;;5075215;28;20036;-40
2020/12/17 07:17:04;;;;;;;24.05;14.85;;;2.80;80.90;;;;;;5075791;28;20021;-40
2020/12/17 07:19:44;;;;;;;26.63;14.93;;;2.80;80.80;;;;;;5075211;28;20028;-40
2020/12/17 07:22:13;;;;;;;24.23;13.02;;;2.80;80.80;;;;;;5075249;28;20067;-40
2020/12/17 07:24:49;;;;;;;25.92;14.18;;;2.80;80.80;;;;;;5075249;28;20051;-40
2020/12/17 07:27:23;;;;;;;27.80;16.58;;;2.80;80.70;;;;;;5085102;28;20024;-40
2020/12/17 07:29:59;;;;;;;32.08;17.30;;;2.70;80.80;;;;;;5097540;28;20424;-41
2020/12/17 07:32:29;;;;;;;32.20;18.92;;;2.70;81.00;;;;;;5095702;28;20035;-41
2020/12/17 07:34:57;;;;;;;33.97;18.80;;;2.80;81.20;;;;;;5088911;28;20020;-42
2020/12/17 07:37:40;;;;;;;27.85;15.95;;;2.80;81.30;;;;;;5096972;28;20024;-42
2020/12/17 07:40:11;;;;;;;31.90;16.83;;;2.80;81.40;;;;;;5097238;28;20058;-42
2020/12/17 07:42:37;;;;;;;27.52;15.13;;;2.80;81.50;;;;;;5097146;28;20012;-41
2020/12/17 07:45:03;;;;;;;35.10;19.23;;;2.80;81.10;;;;;;5097232;28;20475;-43
2020/12/17 07:47:30;;;;;;;27.63;15.85;;;2.70;81.10;;;;;;5098954;28;20020;-42
2020/12/17 07:49:57;;;;;;;28.42;16.95;;;2.70;81.20;;;;;;5097208;28;20036;-43
2020/12/17 07:52:31;;;;;;;27.65;15.32;;;2.70;81.20;;;;;;5099002;28;20028;-41
2020/12/17 07:54:59;;;;;;;19.77;12.15;;;2.70;81.30;;;;;;5096527;28;20024;-41
2020/12/17 07:57:25;;;;;;;23.33;11.85;;;2.70;81.30;;;;;;5097462;28;20024;-41
2020/12/17 07:59:51;;;;;;;35.10;15.50;;;2.70;81.20;;;;;;5098842;28;20314;-41
2020/12/17 08:02:17;;;;;;;32.05;15.90;;;2.70;81.30;;;;;;5099067;28;20035;-40
2020/12/17 08:04:47;;;;;;;23.15;12.90;;;2.70;81.30;;;;;;5097786;28;20040;-41
2020/12/17 08:07:14;;;;;;;25.58;13.52;;;2.70;81.50;;;;;;5098264;28;20363;-41
2020/12/17 08:09:40;;;;;;;21.42;12.27;;;2.70;81.50;;;;;;5085870;28;20036;-41
2020/12/17 08:12:10;;;;;;;31.50;15.38;;;2.80;81.70;;;;;;5077806;28;20036;-41
2020/12/17 08:14:35;;;;;;;24.77;15.47;;;2.80;81.80;;;;;;5097319;28;20302;-41
2020/12/17 08:17:08;;;;;;;30.95;17.42;;;2.80;81.80;;;;;;5085235;28;20029;-41
2020/12/17 08:19:34;;;;;;;26.00;16.85;;;2.90;81.70;;;;;;5098505;28;20028;-41
2020/12/17 08:22:01;;;;;;;26.30;13.32;;;2.90;81.80;;;;;;5098087;28;20028;-41
2020/12/17 08:24:32;;;;;;;24.23;14.32;;;2.90;81.80;;;;;;5096511;28;20105;-41
2020/12/17 08:26:58;;;;;;;21.63;13.07;;;2.90;81.60;;;;;;5096976;28;20032;-41
2020/12/17 08:29:25;;;;;;;20.80;13.13;;;3.00;81.50;;;;;;5084582;28;20033;-42
2020/12/17 08:31:52;;;;;;;22.83;12.82;;;3.00;81.50;;;;;;5089684;28;20024;-41
2020/12/17 08:34:18;;;;;;;21.30;13.13;;;3.00;81.40;;;;;;5093152;28;20028;-42
2020/12/17 08:36:44;;;;;;;25.15;14.07;;;3.00;81.30;;;;;;5087841;28;20051;-41
2020/12/17 08:39:17;;;;;;;27.80;15.98;;;3.00;81.40;;;;;;5098496;28;20035;-41
2020/12/17 08:41:47;;;;;;;33.55;18.83;;;3.00;81.40;;;;;;5096996;28;20449;-41
2020/12/17 08:44:16;;;;;;;33.78;20.25;;;3.10;81.60;;;;;;5092012;28;20044;-41
2020/12/17 08:47:05;;;;;;;31.77;19.52;;;3.10;81.70;;;;;;5094788;28;20024;-42
2020/12/17 08:49:32;;;;;;;25.70;15.75;;;3.20;81.80;;;;;;5094525;28;20032;-41
2020/12/17 08:51:59;;;;;;;21.40;13.70;;;3.20;81.70;;;;;;5092633;28;20028;-41
2020/12/17 08:54:26;;;;;;;26.88;15.02;;;3.20;81.40;;;;;;5092302;28;20086;-42
2020/12/17 08:57:01;;;;;;;26.27;14.85;;;3.20;81.00;;;;;;5089751;28;20445;-41
2020/12/17 08:59:27;;;;;;;30.55;16.88;;;3.20;81.00;;;;;;5094709;28;20483;-42
2020/12/17 09:01:52;;;;;;;26.90;15.73;;;3.30;81.20;;;;;;5095797;28;20036;-41
2020/12/17 09:04:18;;;;;;;26.30;16.27;;;3.30;81.10;;;;;;5096742;28;20036;-43
2020/12/17 09:06:52;;;;;;;28.85;17.35;;;3.30;81.10;;;;;;5096482;28;20450;-42
2020/12/17 09:09:27;;;;;;;33.50;19.25;;;3.30;81.20;;;;;;5088466;28;20063;-42
2020/12/17 09:12:01;;;;;;;25.58;15.10;;;3.30;81.30;;;;;;5093876;28;20024;-42
2020/12/17 09:14:29;;;;;;;24.13;14.63;;;3.40;81.20;;;;;;5097619;28;20039;-42
2020/12/17 09:17:10;;;;;;;31.83;17.92;;;3.40;81.30;;;;;;5097110;28;20028;-42
2020/12/17 09:19:36;;;;;;;32.25;17.08;;;3.40;81.30;;;;;;5092899;28;20518;-42
2020/12/17 09:22:02;;;;;;;32.92;19.17;;;3.50;81.00;;;;;;5095622;28;20055;-42
2020/12/17 09:24:32;;;;;;;28.65;16.50;;;3.50;80.90;;;;;;5096020;28;20089;-41
2020/12/17 09:27:14;;;;;;;30.05;17.45;;;3.50;81.00;;;;;;5096121;28;20020;-40
2020/12/17 09:29:40;;;;;;;35.10;20.90;;;3.60;81.30;;;;;;5096300;28;20038;-42
2020/12/17 09:32:20;;;;;;;35.58;20.95;;;3.60;81.30;;;;;;5095066;28;20027;-41
2020/12/17 09:34:46;;;;;;;36.20;20.33;;;3.60;81.10;;;;;;5089175;28;20036;-41
2020/12/17 09:37:12;;;;;;;32.50;18.42;;;3.70;81.10;;;;;;5081717;28;20036;-41
2020/12/17 09:39:47;;;;;;;36.53;21.33;;;3.70;80.90;;;;;;5076783;28;20380;-42
2020/12/17 09:42:17;;;;;;;43.85;23.10;;;3.70;81.10;;;;;;5076166;28;20034;-41
2020/12/17 09:44:43;;;;;;;38.67;23.77;;;3.70;80.90;;;;;;5076534;28;20044;-41
2020/12/17 09:47:09;;;;;;;50.92;27.92;;;3.80;80.80;;;;;;5082379;28;20412;-41
2020/12/17 09:49:37;;;;;;;41.58;24.98;;;3.80;80.70;;;;;;5095781;28;20071;-41
2020/12/17 09:52:03;;;;;;;45.88;25.52;;;3.80;80.70;;;;;;5091774;28;20111;-41
2020/12/17 09:54:29;;;;;;;46.50;28.02;;;3.80;80.80;;;;;;5087745;28;20509;-42
2020/12/17 09:57:05;;;;;;;47.15;25.83;;;3.90;80.80;;;;;;5095103;28;20020;-41
2020/12/17 09:59:31;;;;;;;38.17;22.67;;;3.90;80.80;;;;;;5096914;28;20047;-41
2020/12/17 10:02:01;;;;;;;37.20;21.10;;;3.90;80.90;;;;;;5095923;28;20070;-41
2020/12/17 10:04:28;;;;;;;40.60;23.38;;;3.90;81.00;;;;;;5094893;28;20040;-41
2020/12/17 10:06:54;;;;;;;38.38;24.60;;;3.90;81.10;;;;;;5094315;28;20012;-41
2020/12/17 10:09:20;;;;;;;41.08;22.55;;;4.00;81.10;;;;;;5095249;28;20052;-42
2020/12/17 10:11:50;;;;;;;39.47;24.65;;;4.00;81.10;;;;;;5093554;28;20448;-41
2020/12/17 10:14:17;;;;;;;49.15;26.77;;;4.00;81.00;;;;;;5091490;28;20059;-41
2020/12/17 10:16:43;;;;;;;46.20;25.52;;;4.10;80.90;;;;;;5092835;28;20371;-41
2020/12/17 10:19:09;;;;;;;53.22;26.30;;;4.10;80.40;;;;;;5094671;28;20110;-42
2020/12/17 10:21:36;;;;;;;54.40;27.73;;;4.10;80.00;;;;;;5092123;28;20031;-42
2020/12/17 10:24:05;;;;;;;62.72;35.95;;;4.10;79.70;;;;;;5095444;28;20117;-41
2020/12/17 10:26:31;;;;;;;55.67;30.10;;;4.10;79.60;;;;;;5095672;28;20028;-41
2020/12/17 10:28:58;;;;;;;53.85;29.05;;;4.10;79.50;;;;;;5096324;28;20023;-41
2020/12/17 10:31:25;;;;;;;52.67;30.73;;;4.10;79.60;;;;;;5096348;28;20024;-42
2020/12/17 10:33:51;;;;;;;53.20;30.27;;;4.10;79.70;;;;;;5090523;28;20429;-41
2020/12/17 10:36:16;;;;;;;54.05;28.90;;;4.20;79.80;;;;;;5088851;28;20035;-43
2020/12/17 10:38:42;;;;;;;46.97;26.13;;;4.20;79.80;;;;;;5076539;28;20177;-43
2020/12/17 10:41:08;;;;;;;39.55;22.10;;;4.20;79.80;;;;;;5081507;28;20043;-42
2020/12/17 10:43:33;;;;;;;54.70;28.40;;;4.20;79.80;;;;;;5096236;28;20039;-41
2020/12/17 10:45:59;;;;;;;49.85;28.08;;;4.20;79.80;;;;;;5096686;28;20107;-42
2020/12/17 10:48:25;;;;;;;48.83;25.80;;;4.30;79.90;;;;;;5096233;28;20032;-41
2020/12/17 10:50:51;;;;;;;49.00;25.67;;;4.30;80.00;;;;;;5096043;28;20108;-42
2020/12/17 10:53:17;;;;;;;50.15;26.67;;;4.30;80.00;;;;;;5095460;28;20366;-41
2020/12/17 10:55:43;;;;;;;50.20;24.92;;;4.30;79.70;;;;;;5095592;28;20025;-41
2020/12/17 10:58:11;;;;;;;48.55;27.15;;;4.40;79.40;;;;;;5095690;28;20028;-41
2020/12/17 11:00:38;;;;;;;48.13;26.65;;;4.40;79.20;;;;;;5097480;28;20028;-41
2020/12/17 11:03:05;;;;;;;41.92;22.35;;;4.40;79.20;;;;;;5098621;28;20051;-41
2020/12/17 11:05:30;;;;;;;45.60;26.10;;;4.40;79.10;;;;;;5098383;28;20036;-41
2020/12/17 11:07:56;;;;;;;35.13;19.65;;;4.40;79.30;;;;;;5099382;28;20024;-40
2020/12/17 11:10:22;;;;;;;38.67;22.63;;;4.40;79.60;;;;;;5098422;28;20414;-43
2020/12/17 11:12:48;;;;;;;44.55;25.33;;;4.40;79.60;;;;;;5098559;28;20032;-41
2020/12/17 11:15:13;;;;;;;47.92;28.42;;;4.40;79.50;;;;;;5087919;28;20078;-43
2020/12/17 11:17:39;;;;;;;49.00;30.15;;;4.40;79.20;;;;;;5077824;28;20115;-41
2020/12/17 11:20:04;;;;;;;51.13;27.83;;;4.40;79.00;;;;;;5078713;28;20392;-42
2020/12/17 11:22:31;;;;;;;42.35;24.80;;;4.40;79.00;;;;;;5078786;28;20052;-40
2020/12/17 11:24:56;;;;;;;42.80;23.95;;;4.40;79.10;;;;;;5078590;28;20047;-42
2020/12/17 11:27:22;;;;;;;42.03;24.17;;;4.40;79.00;;;;;;5078172;28;20032;-42
2020/12/17 11:29:48;;;;;;;40.90;23.42;;;4.40;78.90;;;;;;5075837;28;20028;-43
2020/12/17 11:32:13;;;;;;;40.75;22.85;;;4.40;78.70;;;;;;5075490;28;20028;-41
2020/12/17 11:34:39;;;;;;;43.08;25.83;;;4.40;78.60;;;;;;5075614;28;20064;-42
2020/12/17 11:37:05;;;;;;;40.95;23.05;;;4.40;78.80;;;;;;5075228;28;20024;-41
2020/12/17 11:39:30;;;;;;;42.28;23.50;;;4.30;79.00;;;;;;5075259;28;20024;-41
2020/12/17 11:41:56;;;;;;;34.80;21.45;;;4.40;79.20;;;;;;5079447;28;20035;-41
2020/12/17 11:44:24;;;;;;;36.70;19.15;;;4.40;79.30;;;;;;5096687;28;20034;-42
2020/12/17 11:46:52;;;;;;;38.35;22.38;;;4.40;79.20;;;;;;5096236;28;20059;-41
2020/12/17 11:49:18;;;;;;;44.55;23.85;;;4.40;79.30;;;;;;5099024;28;20062;-41
2020/12/17 11:51:43;;;;;;;45.08;23.63;;;4.40;79.10;;;;;;5099167;28;20353;-41
2020/12/17 11:54:09;;;;;;;47.33;24.13;;;4.40;79.00;;;;;;5099080;28;20032;-43
2020/12/17 11:56:35;;;;;;;51.83;23.80;;;4.40;79.00;;;;;;5098565;28;20115;-43
2020/12/17 11:59:00;;;;;;;56.65;26.40;;;4.40;79.20;;;;;;5098756;28;20027;-41
2020/12/17 12:01:30;;;;;;;52.83;24.92;;;4.40;79.40;;;;;;5097417;28;20032;-42
2020/12/17 12:03:56;;;;;;;55.85;29.42;;;4.40;79.40;;;;;;5097427;28;20050;-41
2020/12/17 12:06:21;;;;;;;68.25;33.33;;;4.50;79.50;;;;;;5096879;28;20024;-42
2020/12/17 12:08:47;;;;;;;61.38;32.78;;;4.50;79.30;;;;;;5096824;28;20341;-41
2020/12/17 12:11:16;;;;;;;55.05;29.17;;;4.50;79.40;;;;;;5097085;28;20036;-42
2020/12/17 12:13:42;;;;;;;51.60;29.10;;;4.50;79.50;;;;;;5097297;28;20027;-42
2020/12/17 12:16:13;;;;;;;60.88;30.15;;;4.50;79.60;;;;;;5084207;28;20460;-43
2020/12/17 12:18:41;;;;;;;66.75;32.03;;;4.50;79.50;;;;;;5078794;28;20028;-41
2020/12/17 12:21:09;;;;;;;56.42;29.15;;;4.60;79.50;;;;;;5078170;28;20025;-41
2020/12/17 12:23:35;;;;;;;60.22;31.08;;;4.60;79.40;;;;;;5077742;28;20063;-41
2020/12/17 12:26:04;;;;;;;58.90;29.77;;;4.60;79.30;;;;;;5077703;28;20032;-42
2020/12/17 12:28:30;;;;;;;50.17;26.38;;;4.60;79.20;;;;;;5078135;28;20032;-41
2020/12/17 12:30:56;;;;;;;45.20;26.00;;;4.60;79.00;;;;;;5085903;28;20486;-43
2020/12/17 12:33:21;;;;;;;41.60;25.38;;;4.60;78.90;;;;;;5091162;28;20035;-42
2020/12/17 12:35:47;;;;;;;44.95;25.38;;;4.60;78.70;;;;;;5090997;28;20305;-42
2020/12/17 12:38:13;;;;;;;38.83;22.95;;;4.60;78.70;;;;;;5084475;28;20421;-42
2020/12/17 12:40:38;;;;;;;46.30;27.10;;;4.60;78.60;;;;;;5092545;28;20093;-44
2020/12/17 12:43:04;;;;;;;51.85;27.40;;;4.60;78.60;;;;;;5078458;28;20028;-42